createdAt,value
2023-04-06T00:00:39.587Z,141.81
2023-04-06T00:01:39.596Z,142.02
2023-04-06T00:02:39.649Z,140.73
2023-04-06T00:03:39.641Z,142.34
2023-04-06T00:04:39.617Z,142.83
2023-04-06T00:05:39.624Z,143.25
2023-04-06T00:06:39.584Z,142.16
2023-04-06T00:07:39.597Z,142.23
2023-04-06T00:08:39.595Z,140.17
2023-04-06T00:09:39.589Z,142.16
2023-04-06T00:10:39.603Z,142.65
2023-04-06T00:11:39.562Z,142.35
2023-04-06T00:12:39.630Z,140.81
2023-04-06T00:13:39.562Z,141.97
2023-04-06T00:14:39.586Z,140.92
2023-04-06T00:15:39.593Z,140.89
2023-04-06T00:16:39.587Z,141.06
2023-04-06T00:17:39.603Z,142.33
2023-04-06T00:18:39.576Z,141.38
2023-04-06T00:19:39.590Z,141.89
2023-04-06T00:20:39.584Z,143.31
2023-04-06T00:21:39.642Z,144.11
2023-04-06T00:22:39.579Z,139.97
2023-04-06T00:23:39.592Z,141.45
2023-04-06T00:24:39.599Z,143.16
2023-04-06T00:25:39.622Z,140.92
2023-04-06T00:26:39.576Z,143.49
2023-04-06T00:27:39.626Z,144.64
2023-04-06T00:28:39.565Z,143.73
2023-04-06T00:29:39.583Z,141.74
2023-04-06T00:30:39.589Z,144.65
2023-04-06T00:31:39.624Z,140.82
2023-04-06T00:32:39.611Z,143.11
2023-04-06T00:33:39.610Z,144.79
2023-04-06T00:34:39.608Z,144.48
2023-04-06T00:35:39.731Z,144.53
2023-04-06T00:36:39.628Z,144.35
2023-04-06T00:37:39.644Z,143.70
2023-04-06T00:38:39.640Z,142.22
2023-04-06T00:39:39.599Z,142.56
2023-04-06T00:40:39.614Z,145.84
2023-04-06T00:41:39.642Z,140.58
2023-04-06T00:42:39.619Z,144.09
2023-04-06T00:43:39.632Z,143.23
2023-04-06T00:44:39.639Z,141.13
2023-04-06T00:45:39.702Z,145.26
2023-04-06T00:46:39.646Z,142.77
2023-04-06T00:47:39.612Z,143.72
2023-04-06T00:48:39.631Z,144.21
2023-04-06T00:49:39.629Z,144.98
2023-04-06T00:50:39.630Z,146.06
2023-04-06T00:51:39.633Z,143.78
2023-04-06T00:52:39.640Z,146.62
2023-04-06T00:53:39.637Z,144.92
2023-04-06T00:54:39.651Z,143.80
2023-04-06T00:55:39.660Z,143.85
2023-04-06T00:56:39.664Z,143.53
2023-04-06T00:57:39.672Z,145.25
2023-04-06T00:58:39.685Z,143.77
2023-04-06T00:59:39.775Z,145.50
2023-04-06T01:00:39.695Z,146.66
2023-04-06T01:01:39.725Z,144.42
2023-04-06T01:02:39.722Z,144.15
2023-04-06T01:03:39.719Z,144.56
2023-04-06T01:04:39.732Z,147.02
2023-04-06T01:05:39.796Z,144.69
2023-04-06T01:06:39.749Z,145.87
2023-04-06T01:07:39.742Z,142.91
2023-04-06T01:08:39.762Z,148.88
2023-04-06T01:09:39.704Z,144.65
2023-04-06T01:10:39.761Z,146.07
2023-04-06T01:11:39.775Z,144.81
2023-04-06T01:12:39.824Z,146.33
2023-04-06T01:13:39.776Z,145.17
2023-04-06T01:14:39.783Z,145.81
2023-04-06T01:15:39.817Z,144.31
2023-04-06T01:16:39.806Z,145.10
2023-04-06T01:17:39.904Z,144.25
2023-04-06T01:18:39.827Z,146.05
2023-04-06T01:19:39.827Z,143.83
2023-04-06T01:20:39.833Z,145.06
2023-04-06T01:21:39.847Z,145.40
2023-04-06T01:22:39.862Z,148.38
2023-04-06T01:23:39.900Z,145.82
2023-04-06T01:24:39.855Z,145.68
2023-04-06T01:25:39.882Z,146.40
2023-04-06T01:26:39.923Z,147.46
2023-04-06T01:27:39.950Z,143.68
2023-04-06T01:28:39.931Z,144.39
2023-04-06T01:29:39.952Z,145.49
2023-04-06T01:30:39.947Z,145.20
2023-04-06T01:31:39.968Z,144.11
2023-04-06T01:32:40.006Z,142.72
2023-04-06T01:33:39.987Z,146.92
2023-04-06T01:34:39.967Z,146.90
2023-04-06T01:35:40.002Z,144.58
2023-04-06T01:36:39.984Z,146.27
2023-04-06T01:37:40.010Z,147.57
2023-04-06T01:38:40.022Z,144.35
2023-04-06T01:39:40.062Z,146.57
2023-04-06T01:40:40.066Z,147.02
2023-04-06T01:41:40.071Z,144.57
2023-04-06T01:42:40.142Z,145.92
2023-04-06T01:43:40.087Z,145.50
2023-04-06T01:44:40.148Z,146.19
2023-04-06T01:45:40.208Z,147.40
2023-04-06T01:46:40.194Z,149.98
2023-04-06T01:47:40.295Z,146.81
2023-04-06T01:48:40.187Z,145.88
2023-04-06T01:49:40.239Z,146.76
2023-04-06T01:50:40.322Z,145.38
2023-04-06T01:51:40.302Z,144.26
2023-04-06T01:52:40.306Z,147.44
2023-04-06T01:53:40.325Z,149.67
2023-04-06T01:54:40.372Z,147.05
2023-04-06T01:55:40.379Z,148.84
2023-04-06T01:56:40.381Z,146.90
2023-04-06T01:57:40.437Z,144.76
2023-04-06T01:58:40.455Z,147.19
2023-04-06T01:59:40.531Z,154.32
2023-04-06T02:00:40.552Z,147.13
2023-04-06T02:01:40.512Z,147.34
2023-04-06T02:02:55.246Z,147.41
2023-04-06T02:03:40.533Z,147.95
2023-04-06T02:04:40.613Z,149.13
2023-04-06T02:05:40.510Z,149.73
2023-04-06T02:06:40.501Z,151.03
2023-04-06T02:07:40.532Z,151.72
2023-04-06T02:08:40.526Z,151.56
2023-04-06T02:09:40.479Z,151.38
2023-04-06T02:10:40.518Z,152.37
2023-04-06T02:11:40.493Z,151.35
2023-04-06T02:12:40.493Z,153.55
2023-04-06T02:13:40.488Z,152.86
2023-04-06T02:14:40.456Z,149.59
2023-04-06T02:15:40.423Z,148.49
2023-04-06T02:16:40.481Z,147.15
2023-04-06T02:17:40.513Z,146.83
2023-04-06T02:18:40.434Z,148.80
2023-04-06T02:19:40.376Z,148.95
2023-04-06T02:20:40.409Z,147.12
2023-04-06T02:21:40.391Z,147.78
2023-04-06T02:22:40.404Z,150.14
2023-04-06T02:23:40.362Z,149.99
2023-04-06T02:24:40.369Z,148.56
2023-04-06T02:25:40.369Z,148.92
2023-04-06T02:26:40.352Z,146.98
2023-04-06T02:27:40.339Z,152.41
2023-04-06T02:28:40.326Z,150.92
2023-04-06T02:29:40.324Z,148.80
2023-04-06T02:30:40.365Z,146.62
2023-04-06T02:31:40.334Z,151.89
2023-04-06T02:32:40.371Z,146.97
2023-04-06T02:33:40.328Z,152.55
2023-04-06T02:34:40.294Z,146.91
2023-04-06T02:35:40.390Z,147.69
2023-04-06T02:36:40.296Z,149.24
2023-04-06T02:37:40.311Z,151.25
2023-04-06T02:38:40.255Z,148.08
2023-04-06T02:39:40.269Z,151.01
2023-04-06T02:40:40.270Z,150.03
2023-04-06T02:41:40.275Z,150.94
2023-04-06T02:42:40.239Z,150.33
2023-04-06T02:43:40.245Z,149.92
2023-04-06T02:44:40.209Z,152.33
2023-04-06T02:45:40.402Z,151.15
2023-04-06T02:46:40.209Z,150.28
2023-04-06T02:47:40.303Z,152.39
2023-04-06T02:48:40.225Z,149.91
2023-04-06T02:49:40.184Z,150.26
2023-04-06T02:50:54.679Z,150.73
2023-04-06T02:51:40.302Z,151.34
2023-04-06T02:52:40.323Z,152.31
2023-04-06T02:53:40.330Z,152.57
2023-04-06T02:54:40.363Z,154.84
2023-04-06T02:55:40.438Z,155.59
2023-04-06T02:56:40.437Z,156.24
2023-04-06T02:57:40.445Z,155.86
2023-04-06T02:58:40.507Z,152.23
2023-04-06T02:59:40.717Z,152.30
2023-04-06T03:00:40.577Z,153.39
2023-04-06T03:01:40.649Z,152.39
2023-04-06T03:02:40.750Z,152.34
2023-04-06T03:03:40.767Z,153.60
2023-04-06T03:04:40.741Z,154.77
2023-04-06T03:05:40.761Z,152.42
2023-04-06T03:06:40.816Z,151.29
2023-04-06T03:07:40.873Z,152.69
2023-04-06T03:08:40.897Z,150.59
2023-04-06T03:09:40.947Z,155.95
2023-04-06T03:10:40.990Z,152.14
2023-04-06T03:11:41.000Z,152.15
2023-04-06T03:12:41.061Z,151.29
2023-04-06T03:13:41.122Z,151.83
2023-04-06T03:14:41.125Z,153.89
2023-04-06T03:15:41.137Z,151.84
2023-04-06T03:16:41.215Z,153.89
2023-04-06T03:17:41.308Z,151.29
2023-04-06T03:18:41.256Z,151.81
2023-04-06T03:19:41.315Z,151.37
2023-04-06T03:20:41.371Z,152.18
2023-04-06T03:21:41.405Z,148.05
2023-04-06T03:22:41.427Z,149.19
2023-04-06T03:23:41.450Z,154.15
2023-04-06T03:24:41.525Z,155.16
2023-04-06T03:25:41.582Z,151.62
2023-04-06T03:26:41.606Z,152.48
2023-04-06T03:27:41.617Z,154.07
2023-04-06T03:28:41.713Z,153.69
2023-04-06T03:29:41.783Z,151.92
2023-04-06T03:30:41.847Z,154.00
2023-04-06T03:31:41.975Z,153.81
2023-04-06T03:32:41.959Z,153.49
2023-04-06T03:33:41.922Z,153.84
2023-04-06T03:34:42.005Z,153.17
2023-04-06T03:35:42.077Z,152.43
2023-04-06T03:36:42.143Z,153.91
2023-04-06T03:37:42.125Z,153.71
2023-04-06T03:38:42.213Z,153.35
2023-04-06T03:39:42.284Z,152.25
2023-04-06T03:40:42.308Z,154.40
2023-04-06T03:41:42.356Z,153.84
2023-04-06T03:42:42.498Z,152.31
2023-04-06T03:43:42.481Z,152.40
2023-04-06T03:44:42.551Z,154.35
2023-04-06T03:45:42.621Z,155.37
2023-04-06T03:46:42.736Z,154.07
2023-04-06T03:47:42.749Z,151.62
2023-04-06T03:48:42.796Z,151.50
2023-04-06T03:49:42.841Z,153.60
2023-04-06T03:50:42.897Z,152.67
2023-04-06T03:51:42.961Z,153.12
2023-04-06T03:52:43.009Z,152.73
2023-04-06T03:53:43.065Z,151.59
2023-04-06T03:54:43.130Z,154.86
2023-04-06T03:55:43.196Z,157.18
2023-04-06T03:56:43.251Z,151.62
2023-04-06T03:57:43.258Z,151.37
2023-04-06T03:58:43.335Z,153.30
2023-04-06T03:59:43.435Z,154.17
2023-04-06T04:00:43.427Z,153.56
2023-04-06T04:01:43.601Z,155.01
2023-04-06T04:02:43.690Z,149.55
2023-04-06T04:03:43.644Z,148.22
2023-04-06T04:04:43.699Z,145.31
2023-04-06T04:05:43.714Z,140.56
2023-04-06T04:06:43.747Z,129.26
2023-04-06T04:07:43.787Z,124.28
2023-04-06T04:08:43.794Z,112.69
2023-04-06T04:09:43.805Z,106.89
2023-04-06T04:10:43.793Z,98.78
2023-04-06T04:11:43.833Z,94.61
2023-04-06T04:12:43.828Z,83.54
2023-04-06T04:13:43.834Z,73.90
2023-04-06T04:14:43.873Z,66.14
2023-04-06T04:15:43.886Z,60.34
2023-04-06T04:16:43.896Z,52.38
2023-04-06T04:17:44.379Z,46.54
2023-04-06T04:18:43.830Z,40.31
2023-04-06T04:19:43.874Z,38.97
2023-04-06T04:20:43.868Z,30.61
2023-04-06T04:21:43.876Z,27.37
2023-04-06T04:22:43.891Z,26.72
2023-04-06T04:23:43.899Z,25.00
2023-04-06T04:24:43.951Z,25.00
2023-04-06T04:25:43.960Z,28.81
2023-04-06T04:26:43.956Z,27.08
2023-04-06T04:27:43.974Z,29.29
2023-04-06T04:28:43.967Z,27.23
2023-04-06T04:29:44.049Z,27.89
2023-04-06T04:30:43.990Z,25.00
2023-04-06T04:31:44.052Z,31.46
2023-04-06T04:32:44.105Z,29.53
2023-04-06T04:33:44.061Z,29.58
2023-04-06T04:34:44.025Z,27.79
2023-04-06T04:35:44.060Z,25.00
2023-04-06T04:36:44.104Z,27.67
2023-04-06T04:37:44.034Z,31.71
2023-04-06T04:38:44.048Z,30.45
2023-04-06T04:39:44.056Z,28.33
2023-04-06T04:40:44.069Z,28.07
2023-04-06T04:41:44.072Z,32.36
2023-04-06T04:42:44.069Z,34.74
2023-04-06T04:43:44.052Z,30.61
2023-04-06T04:44:44.057Z,32.65
2023-04-06T04:45:44.236Z,31.68
2023-04-06T04:46:44.103Z,38.91
2023-04-06T04:47:44.131Z,39.37
2023-04-06T04:48:44.136Z,39.13
2023-04-06T04:49:44.138Z,40.13
2023-04-06T04:50:44.169Z,44.79
2023-04-06T04:51:44.142Z,45.85
2023-04-06T04:52:44.209Z,45.52
2023-04-06T04:53:44.206Z,44.85
2023-04-06T04:54:44.194Z,46.68
2023-04-06T04:55:44.251Z,47.04
2023-04-06T04:56:44.238Z,45.41
2023-04-06T04:57:44.237Z,48.20
2023-04-06T04:58:44.244Z,48.94
2023-04-06T04:59:44.231Z,53.86
2023-04-06T05:00:44.228Z,54.67
2023-04-06T05:01:54.865Z,50.88
2023-04-06T05:02:45.264Z,51.15
2023-04-06T05:03:44.269Z,52.00
2023-04-06T05:04:44.295Z,52.18
2023-04-06T05:05:44.243Z,54.19
2023-04-06T05:06:44.248Z,57.15
2023-04-06T05:07:44.284Z,58.46
2023-04-06T05:08:44.217Z,60.26
2023-04-06T05:09:44.222Z,56.70
2023-04-06T05:10:44.171Z,59.06
2023-04-06T05:11:44.191Z,62.48
2023-04-06T05:12:44.226Z,64.50
2023-04-06T05:13:44.157Z,64.66
2023-04-06T05:14:44.176Z,62.02
2023-04-06T05:15:44.171Z,64.22
2023-04-06T05:16:44.171Z,67.74
2023-04-06T05:17:44.148Z,65.00
2023-04-06T05:18:44.126Z,69.20
2023-04-06T05:19:44.100Z,70.61
2023-04-06T05:20:44.103Z,67.27
2023-04-06T05:21:44.121Z,71.86
2023-04-06T05:22:44.085Z,70.53
2023-04-06T05:23:44.070Z,70.67
2023-04-06T05:24:44.057Z,71.88
2023-04-06T05:25:44.081Z,72.60
2023-04-06T05:26:44.079Z,72.34
2023-04-06T05:27:44.076Z,75.80
2023-04-06T05:28:44.074Z,72.95
2023-04-06T05:29:44.032Z,72.82
2023-04-06T05:30:44.141Z,75.20
2023-04-06T05:31:44.130Z,76.13
2023-04-06T05:32:44.097Z,75.83
2023-04-06T05:33:44.016Z,74.67
2023-04-06T05:34:44.035Z,77.64
2023-04-06T05:35:44.050Z,80.45
2023-04-06T05:36:44.050Z,77.83
2023-04-06T05:37:43.996Z,81.17
2023-04-06T05:38:44.060Z,84.36
2023-04-06T05:39:44.012Z,78.49
2023-04-06T05:40:43.991Z,81.32
2023-04-06T05:41:44.014Z,80.42
2023-04-06T05:42:44.001Z,86.07
2023-04-06T05:43:44.051Z,82.00
2023-04-06T05:44:44.052Z,81.24
2023-04-06T05:45:44.057Z,82.01
2023-04-06T05:46:44.120Z,83.56
2023-04-06T05:47:44.035Z,86.31
2023-04-06T05:48:44.005Z,86.71
2023-04-06T05:49:44.026Z,86.76
2023-04-06T05:50:44.034Z,85.64
2023-04-06T05:51:43.991Z,90.79
2023-04-06T05:52:44.076Z,84.91
2023-04-06T05:53:44.027Z,89.85
2023-04-06T05:54:44.057Z,87.89
2023-04-06T05:55:43.996Z,94.36
2023-04-06T05:56:43.998Z,87.01
2023-04-06T05:57:44.051Z,90.98
2023-04-06T05:58:44.000Z,93.28
2023-04-06T05:59:44.268Z,87.44
2023-04-06T06:00:43.974Z,89.81
2023-04-06T06:01:44.032Z,91.34
2023-04-06T06:02:44.017Z,89.89
2023-04-06T06:03:44.023Z,89.33
2023-04-06T06:04:44.090Z,94.51
2023-04-06T06:05:44.022Z,93.84
2023-04-06T06:06:44.038Z,94.31
2023-04-06T06:07:44.033Z,95.55
2023-04-06T06:08:44.172Z,92.84
2023-04-06T06:09:44.077Z,95.12
2023-04-06T06:10:44.119Z,95.49
2023-04-06T06:11:44.196Z,93.69
2023-04-06T06:12:44.200Z,92.35
2023-04-06T06:13:44.278Z,99.13
2023-04-06T06:14:44.370Z,95.09
2023-04-06T06:15:44.403Z,94.28
2023-04-06T06:16:44.431Z,96.50
2023-04-06T06:17:44.498Z,95.90
2023-04-06T06:18:44.487Z,95.37
2023-04-06T06:19:44.557Z,96.83
2023-04-06T06:20:44.588Z,101.31
2023-04-06T06:21:44.638Z,97.62
2023-04-06T06:22:44.713Z,99.36
2023-04-06T06:23:44.789Z,99.49
2023-04-06T06:24:44.795Z,99.93
2023-04-06T06:25:44.878Z,100.53
2023-04-06T06:26:44.940Z,96.88
2023-04-06T06:27:44.948Z,97.79
2023-04-06T06:28:45.061Z,99.48
2023-04-06T06:29:45.137Z,101.59
2023-04-06T06:30:45.186Z,100.42
2023-04-06T06:31:45.237Z,100.11
2023-04-06T06:32:45.318Z,105.69
2023-04-06T06:33:45.446Z,100.44
2023-04-06T06:34:45.425Z,100.35
2023-04-06T06:35:45.495Z,102.75
2023-04-06T06:36:47.859Z,101.85
2023-04-06T06:37:45.509Z,103.06
2023-04-06T06:38:45.538Z,103.18
2023-04-06T06:39:45.541Z,104.20
2023-04-06T06:40:45.559Z,104.24
2023-04-06T06:41:45.529Z,106.47
2023-04-06T06:42:45.580Z,103.51
2023-04-06T06:43:45.521Z,104.98
2023-04-06T06:44:45.488Z,103.75
2023-04-06T06:45:45.552Z,107.05
2023-04-06T06:46:45.466Z,103.64
2023-04-06T06:47:45.634Z,104.78
2023-04-06T06:48:45.475Z,104.35
2023-04-06T06:49:45.465Z,105.78
2023-04-06T06:50:45.640Z,106.87
2023-04-06T06:51:45.436Z,104.96
2023-04-06T06:52:45.504Z,106.55
2023-04-06T06:53:45.443Z,107.37
2023-04-06T06:54:45.460Z,111.17
2023-04-06T06:55:45.424Z,110.85
2023-04-06T06:56:45.411Z,107.80
2023-04-06T06:57:45.398Z,108.95
2023-04-06T06:58:45.387Z,110.60
2023-04-06T06:59:45.420Z,104.94
2023-04-06T07:00:45.434Z,110.08
2023-04-06T07:01:45.366Z,110.49
2023-04-06T07:02:45.452Z,112.13
2023-04-06T07:03:45.439Z,112.05
2023-04-06T07:04:45.358Z,110.91
2023-04-06T07:05:45.396Z,111.60
2023-04-06T07:06:45.337Z,113.99
2023-04-06T07:07:45.348Z,111.72
2023-04-06T07:08:45.313Z,112.83
2023-04-06T07:09:45.349Z,109.80
2023-04-06T07:10:45.362Z,110.37
2023-04-06T07:11:45.362Z,112.29
2023-04-06T07:12:45.323Z,110.52
2023-04-06T07:13:45.455Z,113.98
2023-04-06T07:14:45.436Z,113.00
2023-04-06T07:15:45.482Z,115.58
2023-04-06T07:16:45.595Z,113.22
2023-04-06T07:17:45.685Z,113.01
2023-04-06T07:18:45.625Z,113.09
2023-04-06T07:19:45.639Z,115.46
2023-04-06T07:20:45.723Z,114.96
2023-04-06T07:21:45.769Z,113.37
2023-04-06T07:22:45.805Z,114.07
2023-04-06T07:23:45.845Z,118.40
2023-04-06T07:24:45.912Z,113.70
2023-04-06T07:25:45.923Z,114.43
2023-04-06T07:26:45.980Z,113.89
2023-04-06T07:27:46.072Z,114.58
2023-04-06T07:28:46.120Z,112.37
2023-04-06T07:29:46.130Z,112.65
2023-04-06T07:30:46.165Z,113.57
2023-04-06T07:31:46.273Z,112.15
2023-04-06T07:32:46.335Z,114.64
2023-04-06T07:33:46.279Z,114.49
2023-04-06T07:34:46.374Z,110.98
2023-04-06T07:35:46.493Z,113.15
2023-04-06T07:36:46.417Z,113.51
2023-04-06T07:37:46.485Z,111.95
2023-04-06T07:38:46.527Z,116.02
2023-04-06T07:39:46.569Z,112.41
2023-04-06T07:40:46.574Z,114.85
2023-04-06T07:41:46.615Z,112.13
2023-04-06T07:42:46.656Z,112.08
2023-04-06T07:43:46.705Z,114.34
2023-04-06T07:44:46.764Z,113.10
2023-04-06T07:45:46.819Z,116.04
2023-04-06T07:46:46.829Z,112.72
2023-04-06T07:47:46.897Z,112.62
2023-04-06T07:48:46.900Z,113.65
2023-04-06T07:49:46.952Z,114.67
2023-04-06T07:50:46.974Z,116.40
2023-04-06T07:51:46.973Z,111.77
2023-04-06T07:52:47.036Z,110.75
2023-04-06T07:53:47.011Z,111.35
2023-04-06T07:54:47.097Z,114.73
2023-04-06T07:55:47.154Z,113.94
2023-04-06T07:56:47.137Z,116.50
2023-04-06T07:57:47.164Z,114.26
2023-04-06T07:58:47.194Z,111.28
2023-04-06T07:59:47.250Z,113.01
2023-04-06T08:00:47.233Z,111.24
2023-04-06T08:01:47.234Z,110.62
2023-04-06T08:02:47.366Z,111.89
2023-04-06T08:03:47.442Z,113.63
2023-04-06T08:04:47.381Z,109.89
2023-04-06T08:05:47.362Z,108.61
2023-04-06T08:06:47.381Z,110.72
2023-04-06T08:07:47.424Z,110.88
2023-04-06T08:08:47.427Z,106.57
2023-04-06T08:09:47.457Z,110.24
2023-04-06T08:10:47.428Z,111.38
2023-04-06T08:11:47.472Z,109.10
2023-04-06T08:12:47.475Z,106.55
2023-04-06T08:13:47.505Z,103.97
2023-04-06T08:14:47.479Z,106.12
2023-04-06T08:15:47.511Z,104.89
2023-04-06T08:16:47.516Z,104.40
2023-04-06T08:17:47.638Z,105.92
2023-04-06T08:18:47.515Z,102.81
2023-04-06T08:19:47.520Z,101.53
2023-04-06T08:20:47.572Z,99.15
2023-04-06T08:21:47.578Z,100.09
2023-04-06T08:22:47.598Z,101.00
2023-04-06T08:23:47.589Z,100.66
2023-04-06T08:24:47.611Z,101.22
2023-04-06T08:25:47.632Z,101.67
2023-04-06T08:26:47.664Z,98.46
2023-04-06T08:27:47.683Z,100.06
2023-04-06T08:28:47.688Z,96.40
2023-04-06T08:29:47.690Z,95.40
2023-04-06T08:30:47.720Z,97.45
2023-04-06T08:31:47.677Z,94.29
2023-04-06T08:32:47.773Z,95.10
2023-04-06T08:33:47.778Z,97.15
2023-04-06T08:34:47.700Z,97.72
2023-04-06T08:35:47.781Z,101.53
2023-04-06T08:36:47.708Z,101.48
2023-04-06T08:37:47.750Z,98.80
2023-04-06T08:38:47.732Z,98.72
2023-04-06T08:39:47.757Z,101.36
2023-04-06T08:40:47.742Z,99.23
2023-04-06T08:41:47.714Z,100.28
2023-04-06T08:42:47.706Z,99.86
2023-04-06T08:43:47.697Z,103.34
2023-04-06T08:44:47.720Z,102.51
2023-04-06T08:45:47.716Z,102.76
2023-04-06T08:46:47.762Z,102.27
2023-04-06T08:47:47.779Z,97.42
2023-04-06T08:48:47.655Z,102.81
2023-04-06T08:49:47.700Z,100.76
2023-04-06T08:50:47.670Z,103.57
2023-04-06T08:51:47.683Z,100.67
2023-04-06T08:52:47.757Z,103.62
2023-04-06T08:53:55.815Z,102.47
2023-04-06T08:54:47.710Z,102.84
2023-04-06T08:55:47.713Z,103.20
2023-04-06T08:56:47.677Z,104.59
2023-04-06T08:57:47.691Z,106.58
2023-04-06T08:58:47.662Z,106.88
2023-04-06T08:59:47.689Z,108.07
2023-04-06T09:00:47.740Z,107.15
2023-04-06T09:01:47.862Z,104.60
2023-04-06T09:02:47.908Z,104.26
2023-04-06T09:03:48.151Z,104.36
2023-04-06T09:04:48.013Z,101.42
2023-04-06T09:05:48.053Z,102.94
2023-04-06T09:06:48.091Z,103.07
2023-04-06T09:07:48.136Z,101.61
2023-04-06T09:08:48.201Z,104.40
2023-04-06T09:09:48.265Z,102.54
2023-04-06T09:10:48.329Z,103.45
2023-04-06T09:11:48.381Z,102.10
2023-04-06T09:12:48.441Z,103.08
2023-04-06T09:13:48.503Z,101.26
2023-04-06T09:14:48.506Z,102.08
2023-04-06T09:15:48.606Z,103.66
2023-04-06T09:16:48.683Z,101.94
2023-04-06T09:17:48.723Z,101.31
2023-04-06T09:18:48.707Z,101.48
2023-04-06T09:19:48.726Z,101.79
2023-04-06T09:20:48.748Z,104.22
2023-04-06T09:21:48.810Z,104.61
2023-04-06T09:22:48.844Z,104.14
2023-04-06T09:23:48.866Z,105.22
2023-04-06T09:24:48.957Z,105.86
2023-04-06T09:25:48.974Z,104.62
2023-04-06T09:26:48.979Z,106.04
2023-04-06T09:27:49.000Z,104.12
2023-04-06T09:28:49.009Z,102.66
2023-04-06T09:29:49.145Z,103.20
2023-04-06T09:30:49.101Z,102.20
2023-04-06T09:31:49.177Z,99.04
2023-04-06T09:32:49.180Z,98.61
2023-04-06T09:33:49.152Z,98.40
2023-04-06T09:34:50.669Z,100.63
2023-04-06T09:35:49.225Z,97.91
2023-04-06T09:36:49.177Z,98.45
2023-04-06T09:37:49.181Z,100.86
2023-04-06T09:38:49.186Z,101.11
2023-04-06T09:39:49.198Z,100.76
2023-04-06T09:41:00.060Z,100.35
2023-04-06T09:41:50.233Z,100.42
2023-04-06T09:42:49.198Z,100.20
2023-04-06T09:43:49.169Z,100.78
2023-04-06T09:44:49.175Z,97.92
2023-04-06T09:45:49.195Z,97.52
2023-04-06T09:46:58.807Z,98.24
2023-04-06T09:47:50.259Z,98.37
2023-04-06T09:48:49.124Z,96.40
2023-04-06T09:49:49.137Z,95.55
2023-04-06T09:50:49.126Z,93.08
2023-04-06T09:51:49.148Z,95.25
2023-04-06T09:52:49.125Z,94.76
2023-04-06T09:53:49.142Z,91.47
2023-04-06T09:54:49.127Z,92.30
2023-04-06T09:55:49.101Z,91.21
2023-04-06T09:56:49.101Z,88.97
2023-04-06T09:57:49.079Z,78.87
2023-04-06T09:58:49.177Z,77.83
2023-04-06T09:59:49.091Z,67.55
2023-04-06T10:00:49.128Z,76.90
2023-04-06T10:01:49.104Z,82.86
2023-04-06T10:02:49.160Z,82.11
2023-04-06T10:03:49.214Z,81.85
2023-04-06T10:04:49.154Z,85.95
2023-04-06T10:05:49.238Z,88.37
2023-04-06T10:06:49.352Z,88.90
2023-04-06T10:07:59.443Z,91.35
2023-04-06T10:08:50.312Z,91.37
2023-04-06T10:09:49.293Z,87.70
2023-04-06T10:10:49.299Z,92.74
2023-04-06T10:11:49.265Z,86.37
2023-04-06T10:12:49.266Z,87.88
2023-04-06T10:13:49.262Z,93.59
2023-04-06T10:14:49.245Z,90.27
2023-04-06T10:15:49.238Z,92.90
2023-04-06T10:16:49.453Z,95.54
2023-04-06T10:17:49.378Z,97.37
2023-04-06T10:18:49.410Z,89.71
2023-04-06T10:19:49.405Z,86.07
2023-04-06T10:20:49.490Z,91.25
2023-04-06T10:21:49.574Z,88.33
2023-04-06T10:22:49.632Z,91.22
2023-04-06T10:23:49.692Z,92.24
2023-04-06T10:24:49.733Z,93.07
2023-04-06T10:25:49.813Z,85.12
2023-04-06T10:26:49.871Z,85.89
2023-04-06T10:27:49.920Z,85.13
2023-04-06T10:28:49.998Z,86.76
2023-04-06T10:29:50.004Z,83.47
2023-04-06T10:30:50.084Z,90.68
2023-04-06T10:31:50.231Z,87.24
2023-04-06T10:32:50.204Z,83.32
2023-04-06T10:33:50.233Z,84.39
2023-04-06T10:34:50.277Z,84.11
2023-04-06T10:35:50.363Z,88.67
2023-04-06T10:36:50.382Z,90.67
2023-04-06T10:37:50.415Z,90.21
2023-04-06T10:38:50.465Z,87.54
2023-04-06T10:39:50.504Z,87.29
2023-04-06T10:40:50.537Z,85.50
2023-04-06T10:41:50.633Z,88.69
2023-04-06T10:42:50.618Z,83.52
2023-04-06T10:43:50.666Z,94.77
2023-04-06T10:44:50.654Z,86.68
2023-04-06T10:45:50.763Z,93.43
2023-04-06T10:46:50.723Z,86.27
2023-04-06T10:47:50.791Z,83.84
2023-04-06T10:48:50.749Z,90.69
2023-04-06T10:49:50.794Z,84.19
2023-04-06T10:50:50.866Z,81.46
2023-04-06T10:51:50.836Z,75.90
2023-04-06T10:52:50.833Z,77.78
2023-04-06T10:53:50.850Z,75.29
2023-04-06T10:54:50.847Z,76.61
2023-04-06T10:55:50.838Z,75.35
2023-04-06T10:56:50.861Z,79.87
2023-04-06T10:57:50.825Z,71.87
2023-04-06T10:58:50.868Z,73.07
2023-04-06T10:59:50.844Z,71.38
2023-04-06T11:00:51.523Z,76.89
2023-04-06T11:01:51.518Z,76.32
2023-04-06T11:02:51.034Z,70.43
2023-04-06T11:03:51.092Z,72.28
2023-04-06T11:04:51.112Z,70.39
2023-04-06T11:05:51.178Z,70.74
2023-04-06T11:06:51.356Z,74.59
2023-04-06T11:07:51.268Z,68.66
2023-04-06T11:08:51.288Z,73.44
2023-04-06T11:10:05.434Z,74.49
2023-04-06T11:10:52.362Z,71.22
2023-04-06T11:11:51.356Z,74.61
2023-04-06T11:12:51.364Z,73.51
2023-04-06T11:13:51.379Z,69.94
2023-04-06T11:14:51.379Z,71.29
2023-04-06T11:15:51.363Z,74.98
2023-04-06T11:16:51.419Z,70.35
2023-04-06T11:17:51.427Z,72.63
2023-04-06T11:18:51.294Z,69.94
2023-04-06T11:19:51.306Z,75.05
2023-04-06T11:20:51.314Z,73.12
2023-04-06T11:21:51.343Z,76.27
2023-04-06T11:22:51.372Z,80.64
2023-04-06T11:23:51.356Z,87.20
2023-04-06T11:24:51.410Z,93.12
2023-04-06T11:25:51.450Z,91.59
2023-04-06T11:26:51.457Z,96.36
2023-04-06T11:27:51.584Z,97.11
2023-04-06T11:28:51.582Z,97.34
2023-04-06T11:29:51.559Z,89.42
2023-04-06T11:30:51.664Z,89.16
2023-04-06T11:31:51.652Z,84.99
2023-04-06T11:32:51.705Z,91.75
2023-04-06T11:33:51.594Z,93.01
2023-04-06T11:34:51.620Z,90.74
2023-04-06T11:35:51.738Z,91.38
2023-04-06T11:36:51.630Z,87.91
2023-04-06T11:37:51.630Z,85.19
2023-04-06T11:38:51.595Z,93.10
2023-04-06T11:39:51.628Z,93.13
2023-04-06T11:40:51.643Z,89.94
2023-04-06T11:41:51.639Z,95.60
2023-04-06T11:42:51.675Z,94.36
2023-04-06T11:43:51.625Z,96.11
2023-04-06T11:44:51.691Z,101.20
2023-04-06T11:45:51.632Z,100.09
2023-04-06T11:46:51.730Z,95.43
2023-04-06T11:47:51.748Z,95.05
2023-04-06T11:48:51.758Z,95.18
2023-04-06T11:49:51.763Z,88.69
2023-04-06T11:50:51.844Z,85.91
2023-04-06T11:51:51.932Z,91.96
2023-04-06T11:52:51.979Z,95.34
2023-04-06T11:53:52.056Z,93.56
2023-04-06T11:54:52.061Z,97.98
2023-04-06T11:55:52.093Z,95.38
2023-04-06T11:56:52.173Z,92.34
2023-04-06T11:57:52.336Z,91.49
2023-04-06T11:58:52.359Z,94.39
2023-04-06T11:59:52.390Z,90.60
2023-04-06T12:00:52.404Z,88.05
2023-04-06T12:01:52.439Z,96.03
2023-04-06T12:02:52.627Z,89.42
2023-04-06T12:03:52.714Z,88.55
2023-04-06T12:04:52.661Z,86.07
2023-04-06T12:05:52.756Z,92.38
2023-04-06T12:06:52.759Z,90.35
2023-04-06T12:07:52.770Z,95.25
2023-04-06T12:08:52.841Z,93.44
2023-04-06T12:09:52.880Z,89.82
2023-04-06T12:10:52.908Z,99.94
2023-04-06T12:11:52.977Z,84.64
2023-04-06T12:12:52.939Z,94.04
2023-04-06T12:13:52.969Z,95.39
2023-04-06T12:14:53.010Z,96.01
2023-04-06T12:15:53.110Z,92.52
2023-04-06T12:16:53.075Z,93.51
2023-04-06T12:17:53.285Z,94.62
2023-04-06T12:18:53.139Z,95.02
2023-04-06T12:19:53.150Z,98.99
2023-04-06T12:20:53.187Z,98.88
2023-04-06T12:21:53.219Z,91.88
2023-04-06T12:22:53.191Z,90.59
2023-04-06T12:23:53.221Z,92.54
2023-04-06T12:24:53.232Z,92.04
2023-04-06T12:25:53.210Z,90.86
2023-04-06T12:26:59.614Z,92.94
2023-04-06T12:27:54.224Z,90.89
2023-04-06T12:28:53.260Z,93.12
2023-04-06T12:29:53.204Z,92.05
2023-04-06T12:30:53.303Z,90.87
2023-04-06T12:31:53.278Z,90.77
2023-04-06T12:32:53.303Z,92.12
2023-04-06T12:33:53.221Z,88.97
2023-04-06T12:34:53.196Z,90.49
2023-04-06T12:35:53.161Z,89.81
2023-04-06T12:36:53.221Z,87.14
2023-04-06T12:37:53.193Z,88.87
2023-04-06T12:38:53.178Z,92.10